Time;durP1;ratioP1;P1;durP2;ratioP2;P2;SDS_P1;SDS_P2;PMS_P1;PMS_P2;Temp;Humidity;BMP_temperature;BMP_pressure;BME280_temperature;BME280_humidity;BME280_pressure;Samples;Min_cycle;Max_cycle;Signal;HPM_P1;HPM_P2
2021/10/09 00:01:27;;;;;;;15.53;5.83;;;;;;;3.76;74.40;101569.81;1660767;86;21031;-84
2021/10/09 00:03:53;;;;;;;15.07;5.20;;;;;;;3.75;74.86;101566.77;1660982;86;21094;-83
2021/10/09 00:06:20;;;;;;;12.77;5.20;;;;;;;3.75;75.68;101569.89;1661133;86;21066;-83
2021/10/09 00:08:48;;;;;;;15.00;5.93;;;;;;;3.74;76.58;101566.85;1714643;83;21049;-82
2021/10/09 00:11:20;;;;;;;18.87;5.73;;;;;;;3.70;77.37;101562.16;1735651;82;21011;-85
2021/10/09 00:13:44;;;;;;;14.87;5.67;;;;;;;3.67;77.55;101557.46;1731963;82;21058;-83
2021/10/09 00:16:12;;;;;;;13.20;5.53;;;;;;;3.66;78.03;101558.40;1735354;82;21575;-85
2021/10/09 00:18:41;;;;;;;14.83;6.00;;;;;;;3.62;78.88;101553.70;1735247;83;21033;-83
2021/10/09 00:21:07;;;;;;;12.53;5.27;;;;;;;3.59;80.20;101561.45;1735378;83;21019;-84
2021/10/09 00:23:35;;;;;;;13.50;5.43;;;;;;;3.57;81.33;101563.31;1735166;82;21078;-85
2021/10/09 00:26:02;;;;;;;11.43;5.17;;;;;;;3.54;81.87;101556.84;1735527;83;21027;-86
2021/10/09 00:28:29;;;;;;;13.63;5.33;;;;;;;3.52;82.50;101555.18;1712961;83;21062;-84
2021/10/09 00:30:57;;;;;;;11.77;5.63;;;;;;;3.49;83.36;101554.89;1735132;82;21528;-83
2021/10/09 00:33:26;;;;;;;14.17;5.40;;;;;;;3.47;84.74;101554.58;1735251;82;20994;-86
2021/10/09 00:35:53;;;;;;;10.17;4.83;;;;;;;3.44;85.16;101552.11;1735014;83;20994;-84
2021/10/09 00:38:21;;;;;;;12.47;5.00;;;;;;;3.41;86.47;101551.30;1735220;82;21122;-82
2021/10/09 00:40:48;;;;;;;13.93;4.90;;;;;;;3.37;88.18;101556.45;1705023;84;21526;-84
2021/10/09 00:43:17;;;;;;;11.43;5.33;;;;;;;3.33;89.23;101550.90;1673298;84;21058;-84
2021/10/09 00:45:53;;;;;;;10.70;5.10;;;;;;;3.33;89.99;101559.37;1735227;83;21038;-81
2021/10/09 00:48:20;;;;;;;10.27;5.17;;;;;;;3.30;90.41;101560.42;1638779;87;21113;-81
2021/10/09 00:50:48;;;;;;;11.80;4.67;;;;;;;3.30;90.43;101568.93;1647361;87;21060;-84
2021/10/09 00:53:14;;;;;;;11.33;5.03;;;;;;;3.27;90.63;101576.63;1638588;88;21558;-83
2021/10/09 00:55:41;;;;;;;10.93;4.97;;;;;;;3.26;90.84;101569.58;1647753;87;21096;-85
2021/10/09 00:58:09;;;;;;;10.90;4.90;;;;;;;3.24;91.02;101567.47;1638602;88;21077;-84
2021/10/09 01:00:39;;;;;;;9.93;5.03;;;;;;;3.24;91.76;101567.47;1647695;85;21494;-87
2021/10/09 01:03:07;;;;;;;11.20;5.00;;;;;;;3.22;92.46;101568.00;1638723;88;21073;-83
2021/10/09 01:05:34;;;;;;;11.27;4.70;;;;;;;3.17;92.87;101566.06;1647620;87;21049;-85
2021/10/09 01:08:03;;;;;;;12.03;4.47;;;;;;;3.14;93.37;101572.45;1638902;88;21021;-84
2021/10/09 01:10:30;;;;;;;11.67;4.83;;;;;;;3.10;92.50;101564.23;1647954;87;21045;-83
2021/10/09 01:13:02;;;;;;;11.70;4.60;;;;;;;3.08;94.07;101571.47;1638683;84;21041;-85
2021/10/09 01:15:32;;;;;;;13.23;5.23;;;;;;;3.04;95.68;101564.06;1647278;86;21061;-83
2021/10/09 01:18:12;;;;;;;10.78;4.62;;;;;;;3.00;96.24;101565.20;1647784;87;21020;-87
2021/10/09 01:20:54;;;;;;;12.40;4.03;;;;;;;2.97;96.56;101566.69;1650908;86;21089;-83
2021/10/09 01:23:23;;;;;;;8.68;4.00;;;;;;;2.94;94.97;101566.88;1648086;86;21539;-81
2021/10/09 01:25:50;;;;;;;12.47;4.07;;;;;;;2.93;94.21;101565.15;1670155;86;21203;-82
2021/10/09 01:28:18;;;;;;;11.67;4.13;;;;;;;2.93;93.93;101566.97;1647862;87;21009;-86
2021/10/09 01:30:46;;;;;;;10.17;4.20;;;;;;;2.93;93.75;101558.47;1647613;87;21090;-84
2021/10/09 01:33:13;;;;;;;10.47;4.00;;;;;;;2.92;94.62;101559.88;1647418;87;21068;-83
2021/10/09 01:35:49;;;;;;;9.70;3.93;;;;;;;2.89;94.68;101567.61;1647614;87;21057;-85
2021/10/09 01:38:19;;;;;;;12.53;4.30;;;;;;;2.86;96.10;101565.09;1678462;84;21053;-83
2021/10/09 01:40:46;;;;;;;12.57;4.33;;;;;;;2.81;97.27;101558.66;1674181;84;21069;-84
2021/10/09 01:43:16;;;;;;;13.10;4.47;;;;;;;2.78;96.93;101557.52;1676776;85;21094;-82
2021/10/09 01:45:45;;;;;;;16.73;4.20;;;;;;;2.76;96.57;101555.85;1693201;83;21031;-83
2021/10/09 01:48:13;;;;;;;10.10;4.10;;;;;;;2.76;96.32;101563.42;1713463;84;21077;-83
2021/10/09 01:50:40;;;;;;;7.07;3.57;;;;;;;2.75;96.59;101548.80;1725809;83;21059;-83
2021/10/09 01:53:08;;;;;;;11.57;4.07;;;;;;;2.75;97.31;101563.50;1726110;83;21029;-84
2021/10/09 01:55:37;;;;;;;9.20;4.13;;;;;;;2.72;97.62;101558.31;1725642;83;21043;-83
2021/10/09 01:58:06;;;;;;;9.57;4.10;;;;;;;2.70;98.05;101556.20;1713886;84;21025;-86
2021/10/09 02:00:35;;;;;;;11.47;3.90;;;;;;;2.69;97.55;101557.13;1713247;84;21044;-85
2021/10/09 02:03:04;;;;;;;10.57;4.10;;;;;;;2.68;98.25;101558.09;1725806;83;21034;-83
2021/10/09 02:05:31;;;;;;;12.57;4.60;;;;;;;2.68;97.84;101556.77;1725896;83;21057;-83
2021/10/09 02:07:59;;;;;;;10.37;4.50;;;;;;;2.67;97.99;101561.22;1725807;83;21030;-84
2021/10/09 02:10:26;;;;;;;9.57;4.17;;;;;;;2.66;99.28;101555.50;1713790;84;21084;-85
2021/10/09 02:12:57;;;;;;;10.77;4.30;;;;;;;2.65;97.91;101555.10;1713779;84;21045;-84
2021/10/09 02:18:22;;;;;;;9.70;4.03;;;;;;;2.64;98.61;101558.73;1750263;82;21049;-84
2021/10/09 02:25:48;;;;;;;9.93;4.10;;;;;;;2.60;98.47;101551.36;1609536;89;21002;-84
2021/10/09 02:28:23;;;;;;;12.37;4.20;;;;;;;2.60;99.30;101555.81;1609911;89;21005;-85
2021/10/09 02:30:53;;;;;;;10.77;3.97;;;;;;;2.57;99.04;101556.86;1609690;89;21081;-85
2021/10/09 02:33:22;;;;;;;10.67;3.80;;;;;;;2.56;98.81;101551.12;1609606;89;21088;-84
2021/10/09 02:35:49;;;;;;;14.37;4.13;;;;;;;2.58;98.91;101557.23;1609940;89;21074;-84
2021/10/09 02:38:16;;;;;;;9.73;3.70;;;;;;;2.59;99.76;101558.97;1609313;89;21025;-86
2021/10/09 02:40:44;;;;;;;12.43;4.17;;;;;;;2.57;100.00;101558.20;1595190;90;21208;-85
2021/10/09 02:43:12;;;;;;;10.40;3.57;;;;;;;2.54;100.00;101559.69;1595546;90;21063;-90
2021/10/09 02:45:41;;;;;;;11.03;3.80;;;;;;;2.55;100.00;101563.21;1590343;90;21592;-87
2021/10/09 02:48:08;;;;;;;7.17;3.37;;;;;;;2.52;100.00;101560.73;1580004;91;21076;-87
2021/10/09 02:50:37;;;;;;;16.83;4.00;;;;;;;2.49;100.00;101555.55;1579741;91;21085;-87
2021/10/09 02:53:04;;;;;;;7.50;3.50;;;;;;;2.47;100.00;101552.47;1579998;89;21127;-87
2021/10/09 02:55:32;;;;;;;9.57;3.67;;;;;;;2.50;100.00;101554.58;1579773;91;21129;-85
2021/10/09 02:58:00;;;;;;;8.33;4.10;;;;;;;2.50;100.00;101556.80;1580059;91;21093;-86
2021/10/09 03:00:27;;;;;;;10.40;3.83;;;;;;;2.51;100.00;101561.17;1630527;88;21094;-88
2021/10/09 03:02:54;;;;;;;11.43;3.83;;;;;;;2.50;100.00;101554.12;1642675;84;21539;-87
2021/10/09 03:05:22;;;;;;;11.80;4.33;;;;;;;2.49;100.00;101559.06;1705300;84;21559;-86
2021/10/09 03:07:49;;;;;;;21.37;14.30;;;;;;;2.48;100.00;101549.35;1735070;83;20979;-86
2021/10/09 03:10:18;;;;;;;25.90;18.90;;;;;;;2.46;100.00;101554.77;1735309;83;21100;-86
2021/10/09 03:12:45;;;;;;;20.80;12.53;;;;;;;2.46;100.00;101549.88;1735390;83;21010;-83
2021/10/09 03:15:14;;;;;;;39.57;25.07;;;;;;;2.43;100.00;101558.92;1713340;81;21535;-84
2021/10/09 03:17:43;;;;;;;23.13;9.07;;;;;;;2.41;100.00;101549.29;1705159;84;21065;-89
2021/10/09 03:20:11;;;;;;;28.03;13.37;;;;;;;2.39;100.00;101557.82;1705667;84;21025;-86
2021/10/09 03:22:38;;;;;;;91.60;40.67;;;;;;;2.38;100.00;101548.11;1705569;84;21006;-84
2021/10/09 03:25:07;;;;;;;23.10;9.10;;;;;;;2.38;100.00;101547.62;1705536;84;21014;-85
2021/10/09 03:27:35;;;;;;;20.67;6.20;;;;;;;2.37;100.00;101543.22;1705169;84;21058;-85
2021/10/09 03:30:04;;;;;;;21.97;7.00;;;;;;;2.37;100.00;101554.38;1705523;84;21052;-83
2021/10/09 03:32:33;;;;;;;10.53;4.57;;;;;;;2.36;100.00;101553.52;1705058;84;21080;-85
2021/10/09 03:35:01;;;;;;;15.90;4.90;;;;;;;2.35;100.00;101552.27;1704934;84;21105;-85
2021/10/09 03:37:29;;;;;;;9.27;4.10;;;;;;;2.33;100.00;101552.83;1705057;84;21578;-86
2021/10/09 03:40:00;;;;;;;10.07;3.87;;;;;;;2.33;100.00;101550.16;1705486;84;21539;-87
2021/10/09 03:45:27;;;;;;;11.80;4.43;;;;;;;2.31;100.00;101547.56;1707468;83;21717;-84
2021/10/09 03:48:05;;;;;;;9.80;4.43;;;;;;;2.27;100.00;101548.20;1727945;81;21089;-82
2021/10/09 03:53:05;;;;;;;9.13;3.90;;;;;;;2.21;100.00;101536.52;1725464;83;21081;-86
2021/10/09 03:55:33;;;;;;;9.07;4.37;;;;;;;2.19;100.00;101542.86;1725244;83;21100;-87
2021/10/09 03:58:00;;;;;;;11.93;4.40;;;;;;;2.19;100.00;101538.86;1725461;82;21026;-84
2021/10/09 04:00:28;;;;;;;10.83;4.03;;;;;;;2.20;100.00;101541.94;1725275;82;21005;-82
2021/10/09 04:02:56;;;;;;;8.40;3.90;;;;;;;2.20;100.00;101548.61;1725532;81;21497;-85
2021/10/09 04:05:23;;;;;;;13.23;4.27;;;;;;;2.21;100.00;101551.20;1725489;82;21002;-83
2021/10/09 04:07:51;;;;;;;11.43;4.27;;;;;;;2.22;100.00;101553.39;1745305;81;21066;-85
2021/10/09 04:10:19;;;;;;;9.70;4.17;;;;;;;2.21;100.00;101560.99;1725244;83;20958;-85
2021/10/09 04:12:46;;;;;;;10.47;4.83;;;;;;;2.20;100.00;101566.81;1725277;83;21078;-84
2021/10/09 04:15:15;;;;;;;12.07;4.40;;;;;;;2.17;100.00;101560.29;1748028;81;21045;-83
2021/10/09 04:17:43;;;;;;;11.23;4.40;;;;;;;2.13;100.00;101564.07;1761205;81;21563;-84
2021/10/09 04:20:15;;;;;;;11.60;4.83;;;;;;;2.13;100.00;101565.89;1761449;81;21038;-86
2021/10/09 04:22:42;;;;;;;12.60;4.07;;;;;;;2.13;100.00;101565.89;1761351;81;21555;-83
2021/10/09 04:25:09;;;;;;;11.43;4.67;;;;;;;2.13;100.00;101571.22;1761440;81;21041;-85
2021/10/09 04:27:37;;;;;;;12.43;4.77;;;;;;;2.17;100.00;101575.45;1761714;81;21037;-83
2021/10/09 04:30:06;;;;;;;11.93;4.60;;;;;;;2.23;100.00;101577.78;1761619;81;21021;-85
2021/10/09 04:32:35;;;;;;;11.67;4.13;;;;;;;2.26;100.00;101579.82;1761474;81;21077;-86
2021/10/09 04:35:05;;;;;;;13.10;4.43;;;;;;;2.26;100.00;101578.97;1761684;81;21041;-84
2021/10/09 04:37:32;;;;;;;13.53;4.77;;;;;;;2.27;100.00;101583.38;1761668;81;21085;-86
2021/10/09 04:39:59;;;;;;;11.80;4.37;;;;;;;2.25;100.00;101574.11;1761581;81;21014;-85
2021/10/09 04:42:26;;;;;;;14.00;4.40;;;;;;;2.27;100.00;101574.89;1761742;81;21503;-84
2021/10/09 04:44:53;;;;;;;16.43;4.30;;;;;;;2.30;100.00;101582.34;1761683;81;21062;-88
2021/10/09 04:47:21;;;;;;;10.97;4.13;;;;;;;2.35;100.00;101574.95;1761583;81;21097;-85
2021/10/09 04:49:50;;;;;;;9.90;4.20;;;;;;;2.40;100.00;101580.92;1761701;81;21066;-87
2021/10/09 04:52:18;;;;;;;12.23;4.43;;;;;;;2.44;100.00;101584.70;1761217;81;21034;-85
2021/10/09 04:54:45;;;;;;;10.30;4.70;;;;;;;2.49;100.00;101573.75;1761560;81;21045;-82
2021/10/09 04:57:14;;;;;;;10.03;4.50;;;;;;;2.54;100.00;101584.20;1761931;81;21077;-84
2021/10/09 04:59:42;;;;;;;11.03;3.70;;;;;;;2.56;100.00;101579.16;1762031;81;21010;-85
2021/10/09 05:02:09;;;;;;;10.30;4.30;;;;;;;2.60;100.00;101578.52;1761838;81;21025;-83
2021/10/09 05:04:37;;;;;;;9.27;4.17;;;;;;;2.64;100.00;101572.95;1761547;81;21026;-79
2021/10/09 05:07:04;;;;;;;11.03;4.33;;;;;;;2.69;100.00;101571.34;1761637;81;21073;-79
2021/10/09 05:09:31;;;;;;;15.00;5.67;;;;;;;2.73;100.00;101574.74;1761685;81;20994;-77
2021/10/09 05:11:59;;;;;;;12.97;6.00;;;;;;;2.78;100.00;101578.88;1760684;81;21073;-76
2021/10/09 05:14:28;;;;;;;13.33;5.20;;;;;;;2.83;100.00;101573.27;1750345;81;21501;-75
2021/10/09 05:16:57;;;;;;;12.00;4.43;;;;;;;2.87;100.00;101574.85;1734153;83;21042;-79
2021/10/09 05:19:23;;;;;;;17.17;6.53;;;;;;;2.90;100.00;101577.33;1729894;83;21009;-79
2021/10/09 05:21:50;;;;;;;11.43;4.73;;;;;;;2.91;100.00;101580.89;1697548;85;21066;-78
2021/10/09 05:24:17;;;;;;;13.80;5.47;;;;;;;2.95;100.00;101575.27;1730095;83;21026;-77
2021/10/09 05:26:44;;;;;;;9.40;4.40;;;;;;;2.98;100.00;101579.13;1729909;82;21017;-77
2021/10/09 05:29:17;;;;;;;16.73;6.60;;;;;;;3.06;100.00;101573.83;1697416;85;21057;-76
2021/10/09 05:31:45;;;;;;;9.93;4.30;;;;;;;3.12;100.00;101570.83;1729954;83;21066;-77
2021/10/09 05:34:13;;;;;;;13.77;4.67;;;;;;;3.18;100.00;101566.46;1730267;82;21066;-78
2021/10/09 05:36:41;;;;;;;11.60;4.57;;;;;;;3.23;100.00;101557.71;1730032;82;21018;-79
2021/10/09 05:39:08;;;;;;;14.50;4.30;;;;;;;3.31;100.00;101554.14;1701305;84;21063;-77
2021/10/09 05:41:35;;;;;;;9.13;4.03;;;;;;;3.40;100.00;101556.28;1693306;85;21058;-76
2021/10/09 05:44:05;;;;;;;11.53;4.63;;;;;;;3.48;100.00;101549.14;1613587;89;21025;-77
2021/10/09 05:46:34;;;;;;;9.27;4.30;;;;;;;3.57;100.00;101546.42;1612899;89;21079;-79
2021/10/09 05:49:02;;;;;;;12.90;4.30;;;;;;;3.63;100.00;101543.41;1648883;87;21093;-79
2021/10/09 05:51:35;;;;;;;10.80;4.20;;;;;;;3.69;100.00;101549.72;1648421;86;21135;-79
2021/10/09 05:54:18;;;;;;;15.00;6.03;;;;;;;3.78;100.00;101548.32;1648691;85;21079;-77
2021/10/09 06:32:21;;;;;;;9.77;4.00;;;;;;;6.16;80.94;101537.67;1652670;87;21014;-78
2021/10/09 07:01:47;;;;;;;13.13;5.03;;;;;;;7.98;63.68;101554.09;1531415;93;21084;-78
2021/10/09 07:04:14;;;;;;;13.40;5.10;;;;;;;8.27;60.26;101545.13;1542614;93;21102;-73
2021/10/09 07:06:42;;;;;;;17.13;5.97;;;;;;;8.52;60.76;101545.94;1527203;93;21078;-74
2021/10/09 07:09:10;;;;;;;16.43;5.83;;;;;;;8.89;60.38;101543.86;1522524;93;21035;-74
2021/10/09 07:11:39;;;;;;;14.30;5.87;;;;;;;9.20;56.51;101544.05;1557465;91;21129;-77
2021/10/09 07:14:07;;;;;;;15.63;5.97;;;;;;;9.41;54.33;101541.44;1561719;91;21566;-74
2021/10/09 07:16:35;;;;;;;19.20;6.90;;;;;;;9.55;53.00;101544.34;1563949;90;21137;-73
2021/10/09 07:19:02;;;;;;;15.43;6.33;;;;;;;9.63;50.29;101541.87;1562154;91;21099;-76
2021/10/09 07:21:30;;;;;;;12.73;5.67;;;;;;;9.67;50.52;101541.97;1555390;91;21060;-75
2021/10/09 07:23:57;;;;;;;22.67;10.58;;;;;;;9.91;51.31;101531.42;1566128;88;21117;-79
2021/10/09 07:26:24;;;;;;;16.77;6.37;;;;;;;10.16;50.12;101536.93;1581680;88;21058;-78
2021/10/09 07:28:50;;;;;;;20.85;6.83;;;;;;;10.37;47.83;101533.41;1613092;88;21105;-80
2021/10/09 07:31:18;;;;;;;17.23;6.65;;;;;;;10.40;47.48;101531.80;1613815;88;21174;-79
2021/10/09 07:33:45;;;;;;;17.55;6.60;;;;;;;10.51;46.51;101534.41;1615393;88;21480;-83
2021/10/09 07:36:11;;;;;;;21.55;7.70;;;;;;;10.55;45.09;101534.52;1619928;88;21116;-77
2021/10/09 07:38:38;;;;;;;18.85;6.85;;;;;;;10.57;45.14;101522.19;1594595;88;21077;-80
2021/10/09 07:41:05;;;;;;;22.93;8.55;;;;;;;10.71;45.27;101524.56;1650574;85;21026;-81
2021/10/09 07:43:32;;;;;;;30.97;10.45;;;;;;;10.79;43.57;101530.13;1691621;85;21029;-76
2021/10/09 07:45:58;;;;;;;21.23;8.50;;;;;;;10.80;42.83;101528.27;1661081;85;21001;-74
2021/10/09 07:48:25;;;;;;;21.77;8.48;;;;;;;10.82;42.47;101524.45;1634745;87;21069;-78
2021/10/09 07:50:52;;;;;;;27.25;8.85;;;;;;;10.98;43.22;101525.30;1637687;87;21198;-78
2021/10/09 07:53:22;;;;;;;23.22;10.10;;;;;;;11.18;41.58;101525.35;1622442;87;21136;-80
2021/10/09 07:55:48;;;;;;;20.00;9.55;;;;;;;11.33;41.47;101529.86;1666009;85;21467;-81
2021/10/09 07:58:16;;;;;;;26.77;11.55;;;;;;;11.47;40.84;101526.74;1668899;85;21538;-77
2021/10/09 08:00:42;;;;;;;21.73;10.53;;;;;;;11.66;40.48;101523.71;1652208;87;21070;-79
2021/10/09 08:03:09;;;;;;;25.35;10.53;;;;;;;11.86;40.47;101523.20;1651652;87;21073;-80
2021/10/09 08:05:37;;;;;;;29.45;15.83;;;;;;;12.12;39.15;101519.44;1652404;87;21472;-78
2021/10/09 08:08:04;;;;;;;26.70;11.30;;;;;;;12.21;39.08;101517.20;1676834;83;21030;-79
2021/10/09 08:10:32;;;;;;;21.07;9.20;;;;;;;12.34;38.82;101504.20;1732486;82;21020;-77
2021/10/09 08:12:58;;;;;;;19.60;9.30;;;;;;;12.45;37.61;101509.09;1740072;82;20991;-78
2021/10/09 08:15:25;;;;;;;22.62;9.95;;;;;;;12.51;37.46;101510.70;1763627;79;21022;-77
2021/10/09 08:17:52;;;;;;;22.32;10.50;;;;;;;12.66;37.44;101502.95;1776883;81;21495;-78
2021/10/09 08:20:19;;;;;;;19.50;9.63;;;;;;;12.80;37.52;101505.68;1741980;81;21011;-79
2021/10/09 08:23:04;;;;;;;21.68;10.00;;;;;;;12.88;35.50;101499.48;1748452;82;21102;-78
2021/10/09 08:36:31;;;;;;;23.73;9.15;;;;;;;13.05;34.56;101493.25;1715781;82;21078;-77
2021/10/09 08:38:53;;;;;;;25.32;9.80;;;;;;;13.23;34.72;101493.80;1681231;82;21142;-76
2021/10/09 08:41:22;;;;;;;24.82;8.83;;;;;;;13.42;34.66;101499.61;1671124;83;21047;-78
2021/10/09 08:43:51;;;;;;;21.62;8.85;;;;;;;13.66;33.68;101483.55;1742704;82;21031;-77
2021/10/09 08:46:18;;;;;;;18.10;8.33;;;;;;;13.81;33.27;101494.73;1694460;84;21025;-76
2021/10/09 08:48:49;;;;;;;18.85;8.25;;;;;;;13.84;31.70;101510.71;1747384;82;21050;-76
2021/10/09 08:51:24;;;;;;;20.37;8.70;;;;;;;13.72;31.31;101497.52;1747680;82;21054;-76
2021/10/09 08:53:52;;;;;;;20.15;8.65;;;;;;;13.61;31.59;101497.26;1747665;82;21511;-77
2021/10/09 08:56:38;;;;;;;20.12;8.40;;;;;;;13.55;31.23;101497.38;1718103;82;21568;-76
2021/10/09 09:04:55;;;;;;;16.73;8.03;;;;;;;13.29;32.00;101492.66;1631519;88;21040;-78
2021/10/09 09:27:19;;;;;;;18.35;6.75;;;;;;;14.74;29.26;101480.56;1549170;92;21080;-83
2021/10/09 09:35:24;;;;;;;22.00;6.58;;;;;;;14.88;27.71;101470.08;1525138;94;21108;-83
2021/10/09 09:40:43;;;;;;;13.53;4.95;;;;;;;14.76;27.97;101464.06;1474956;97;21184;-79
2021/10/09 09:43:11;;;;;;;16.70;5.35;;;;;;;14.77;28.55;101461.70;1459658;96;21086;-79
2021/10/09 09:45:40;;;;;;;14.40;4.80;;;;;;;14.89;28.38;101472.64;1534458;94;21074;-79
2021/10/09 09:48:08;;;;;;;11.10;4.58;;;;;;;15.04;28.68;101459.75;1535102;93;21114;-80
2021/10/09 09:50:35;;;;;;;18.07;5.70;;;;;;;15.04;28.68;101459.75;1534958;93;21551;-80
2021/10/09 09:53:04;;;;;;;14.40;5.08;;;;;;;15.13;28.46;101457.38;1533930;94;21133;-80
2021/10/09 09:55:31;;;;;;;12.98;4.58;;;;;;;15.28;27.97;101458.94;1527662;94;21102;-80
2021/10/09 09:58:00;;;;;;;15.72;4.60;;;;;;;15.31;28.18;101458.09;1546812;90;21089;-78
2021/10/09 10:00:28;;;;;;;13.30;4.70;;;;;;;15.29;27.64;101459.30;1557678;90;21071;-82
2021/10/09 10:02:56;;;;;;;13.98;4.50;;;;;;;15.11;28.18;101453.98;1558786;90;21058;-78
2021/10/09 10:05:27;;;;;;;19.02;5.00;;;;;;;15.04;28.11;101456.51;1550758;90;21722;-77
2021/10/09 10:07:55;;;;;;;17.23;5.05;;;;;;;14.92;27.33;101451.02;1554796;90;21117;-79
2021/10/09 10:10:22;;;;;;;23.40;5.90;;;;;;;14.75;28.11;101450.09;1585210;88;21391;-81
2021/10/09 10:12:56;;;;;;;13.35;4.53;;;;;;;14.74;28.01;101442.45;1603137;88;21104;-81
2021/10/09 10:15:30;;;;;;;26.40;5.17;;;;;;;14.73;27.52;101440.75;1599538;88;21570;-84
2021/10/09 10:17:58;;;;;;;11.75;4.20;;;;;;;14.66;27.57;101445.64;1580461;91;21144;-83
2021/10/09 10:20:37;;;;;;;11.40;4.10;;;;;;;14.57;27.99;101449.67;1599626;88;21100;-81
2021/10/09 10:23:04;;;;;;;19.67;4.33;;;;;;;14.51;27.90;101442.14;1562166;91;21020;-84
2021/10/09 10:25:33;;;;;;;20.10;4.67;;;;;;;14.39;28.11;101442.92;1547393;93;21129;-81
2021/10/09 10:28:07;;;;;;;13.45;4.62;;;;;;;14.43;28.44;101440.77;1605717;87;21028;-79
2021/10/09 10:30:42;;;;;;;20.43;5.33;;;;;;;14.52;28.34;101438.91;1645123;85;21030;-78
2021/10/09 10:33:18;;;;;;;12.68;4.37;;;;;;;14.61;28.65;101436.10;1699155;84;21050;-79
2021/10/09 10:35:47;;;;;;;15.70;4.80;;;;;;;14.69;28.37;101432.55;1717513;84;21125;-80
2021/10/09 10:38:32;;;;;;;20.70;5.25;;;;;;;14.57;28.08;101431.11;1706803;84;21056;-79
2021/10/09 10:41:03;;;;;;;14.75;4.20;;;;;;;14.48;27.61;101428.01;1688618;85;21091;-77
2021/10/09 10:43:39;;;;;;;13.65;5.10;;;;;;;14.33;27.54;101431.34;1691104;85;21096;-76
2021/10/09 10:46:34;;;;;;;14.87;5.58;;;;;;;14.37;28.29;101424.55;1686780;84;20986;-80
2021/10/09 10:57:03;;;;;;;31.70;5.28;;;;;;;14.67;28.27;101429.66;1688090;84;21034;-78
2021/10/09 10:59:49;;;;;;;15.03;4.40;;;;;;;14.67;28.27;101429.66;1681956;83;21034;-76
2021/10/09 11:02:24;;;;;;;17.00;4.50;;;;;;;14.56;28.13;101425.34;1701016;83;21023;-76
2021/10/09 11:04:54;;;;;;;11.97;4.10;;;;;;;14.37;27.17;101420.47;1699930;83;21017;-76
2021/10/09 11:07:30;;;;;;;16.60;4.47;;;;;;;14.14;27.51;101426.97;1697952;84;21089;-76
2021/10/09 11:10:14;;;;;;;8.60;4.05;;;;;;;13.99;27.99;101424.00;1698595;84;21004;-80
2021/10/09 11:12:49;;;;;;;11.48;4.10;;;;;;;13.84;28.24;101415.55;1707160;82;21070;-73
2021/10/09 11:15:25;;;;;;;10.32;4.00;;;;;;;13.64;28.35;101423.05;1715512;82;21002;-75
2021/10/09 11:17:59;;;;;;;12.28;4.17;;;;;;;13.44;28.83;101417.47;1679316;84;21021;-73
2021/10/09 11:20:30;;;;;;;11.93;4.30;;;;;;;13.33;29.27;101418.52;1673883;85;21110;-74
2021/10/09 11:23:00;;;;;;;9.20;4.05;;;;;;;13.26;29.79;101425.56;1619847;87;21046;-75
2021/10/09 11:25:34;;;;;;;13.38;4.15;;;;;;;13.20;29.02;101424.84;1618866;89;21001;-78
2021/10/09 11:28:07;;;;;;;19.12;4.40;;;;;;;13.10;29.20;101431.68;1619625;88;21041;-81
2021/10/09 11:30:38;;;;;;;12.05;4.12;;;;;;;13.06;29.64;101423.50;1542990;93;21591;-84
2021/10/09 11:33:05;;;;;;;12.70;4.53;;;;;;;13.02;29.42;101427.03;1518380;95;21176;-80
2021/10/09 11:35:40;;;;;;;7.80;4.05;;;;;;;13.00;29.53;101424.13;1517559;95;21162;-82
2021/10/09 11:38:29;;;;;;;15.95;5.28;;;;;;;12.96;29.33;101415.92;1517691;94;21089;-82
2021/10/09 11:43:50;;;;;;;15.43;4.87;;;;;;;12.80;29.65;101413.39;1517945;94;21126;-80
2021/10/09 11:53:36;;;;;;;11.90;4.33;;;;;;;12.49;29.87;101413.69;1518235;94;21073;-77
2021/10/09 11:55:26;;;;;;;16.27;5.03;;;;;;;12.41;29.86;101411.37;1513342;94;21551;-74
2021/10/09 11:57:53;;;;;;;15.83;5.17;;;;;;;12.29;30.19;101408.86;1516958;95;21680;-77
2021/10/09 12:00:37;;;;;;;11.93;4.60;;;;;;;12.18;29.94;101399.53;1518023;95;21119;-82
2021/10/09 12:03:33;;;;;;;14.07;4.40;;;;;;;12.09;30.05;101411.27;1517043;95;21161;-79
2021/10/09 12:06:09;;;;;;;19.50;5.30;;;;;;;12.02;30.68;101416.93;1528383;92;21031;-80
2021/10/09 12:08:53;;;;;;;14.75;4.53;;;;;;;12.00;31.44;101406.73;1531439;92;21624;-82
2021/10/09 12:11:25;;;;;;;11.22;4.62;;;;;;;11.99;30.85;101409.08;1502534;95;21062;-82
2021/10/09 12:14:04;;;;;;;13.72;4.40;;;;;;;11.92;30.88;101396.13;1483921;97;21097;-81
2021/10/09 12:16:46;;;;;;;12.35;4.40;;;;;;;11.89;30.92;101397.73;1496637;94;21152;-79
2021/10/09 12:19:27;;;;;;;18.87;5.08;;;;;;;11.81;31.14;101390.86;1499486;89;21144;-81
2021/10/09 12:22:02;;;;;;;13.72;4.33;;;;;;;11.73;31.56;101391.57;1589442;90;21044;-79
2021/10/09 12:24:31;;;;;;;14.40;4.60;;;;;;;11.66;32.02;101389.09;1589617;90;21004;-79
2021/10/09 12:27:17;;;;;;;11.20;4.25;;;;;;;11.61;32.52;101372.92;1594497;89;21509;-77
2021/10/09 12:30:06;;;;;;;15.20;4.22;;;;;;;11.56;32.21;101374.70;1623121;87;21077;-78
2021/10/09 12:32:46;;;;;;;15.08;4.37;;;;;;;11.51;31.86;101371.56;1646633;87;21124;-79
2021/10/09 12:38:08;;;;;;;17.90;3.95;;;;;;;11.44;32.10;101354.19;1526889;93;21088;-75
2021/10/09 12:40:44;;;;;;;13.75;4.25;;;;;;;11.41;31.74;101351.28;1564622;92;21053;-77
2021/10/09 12:43:13;;;;;;;11.05;3.98;;;;;;;11.38;31.18;101344.79;1576506;90;21137;-80
2021/10/09 12:45:41;;;;;;;12.73;4.30;;;;;;;11.35;31.08;101335.59;1581446;90;21046;-78
2021/10/09 12:48:08;;;;;;;9.03;3.70;;;;;;;11.33;31.22;101328.12;1548288;91;21060;-79
2021/10/09 12:50:38;;;;;;;17.85;4.55;;;;;;;11.32;31.11;101318.30;1562972;92;21075;-80
2021/10/09 12:53:06;;;;;;;12.45;4.00;;;;;;;11.29;30.89;101322.14;1559857;92;21032;-80
2021/10/09 12:55:34;;;;;;;12.98;4.72;;;;;;;11.29;31.23;101328.91;1578012;90;21096;-79
2021/10/09 12:58:05;;;;;;;16.50;4.30;;;;;;;11.28;31.17;101319.09;1577477;90;21104;-82
2021/10/09 13:00:32;;;;;;;20.25;4.78;;;;;;;11.28;30.66;101327.70;1575991;90;21065;-79
2021/10/09 13:02:59;;;;;;;10.88;4.17;;;;;;;11.30;31.13;101340.62;1585081;90;21149;-78
2021/10/09 13:05:29;;;;;;;11.68;4.58;;;;;;;11.31;31.11;101349.08;1579343;90;21078;-78
2021/10/09 13:07:58;;;;;;;18.20;4.55;;;;;;;11.32;31.34;101357.06;1576586;90;21096;-77
2021/10/09 13:10:24;;;;;;;15.20;4.60;;;;;;;11.33;31.16;101347.95;1572017;90;21562;-79
2021/10/09 13:12:52;;;;;;;12.63;4.00;;;;;;;11.34;30.78;101348.29;1574375;90;21647;-79
2021/10/09 13:15:19;;;;;;;15.72;4.50;;;;;;;11.35;30.64;101352.72;1571117;90;21073;-78
2021/10/09 13:17:50;;;;;;;12.95;4.62;;;;;;;11.37;30.45;101352.58;1574162;90;21078;-79
2021/10/09 13:20:18;;;;;;;15.65;4.33;;;;;;;11.39;30.44;101358.70;1560517;92;21138;-79
2021/10/09 13:22:46;;;;;;;7.50;4.15;;;;;;;11.38;30.47;101351.09;1559397;92;21079;-80
2021/10/09 13:25:13;;;;;;;10.75;5.12;;;;;;;11.39;30.59;101356.84;1574255;90;21066;-77
2021/10/09 13:27:41;;;;;;;16.57;5.58;;;;;;;11.43;31.00;101359.27;1580938;90;21019;-80
2021/10/09 13:30:10;;;;;;;12.65;5.03;;;;;;;11.43;30.86;101361.97;1580141;90;21048;-78
2021/10/09 13:32:38;;;;;;;17.32;5.12;;;;;;;11.44;30.77;101363.19;1621581;87;21082;-79
2021/10/09 13:35:07;;;;;;;12.15;5.42;;;;;;;11.43;30.51;101358.75;1682305;82;21045;-83
2021/10/09 13:37:49;;;;;;;13.72;5.35;;;;;;;11.43;30.50;101357.41;1707032;82;21046;-81
2021/10/09 13:40:17;;;;;;;10.18;5.00;;;;;;;11.43;30.62;101355.20;1730205;82;20994;-83
2021/10/09 13:42:45;;;;;;;14.75;5.45;;;;;;;11.42;30.54;101365.19;1719105;83;21033;-81
2021/10/09 13:45:12;;;;;;;13.80;5.40;;;;;;;11.40;30.14;101359.03;1720017;83;21018;-78
2021/10/09 13:47:41;;;;;;;16.07;6.28;;;;;;;11.39;30.42;101364.12;1719437;83;21013;-78
2021/10/09 13:50:08;;;;;;;15.40;6.17;;;;;;;11.38;30.43;101359.21;1704641;84;21005;-79
2021/10/09 13:52:36;;;;;;;13.32;6.10;;;;;;;11.38;30.63;101362.39;1704707;84;20989;-75